Time;durP1;ratioP1;P1;durP2;ratioP2;P2;SDS_P1;SDS_P2;PMS_P1;PMS_P2;Temp;Humidity;BMP_temperature;BMP_pressure;BME280_temperature;BME280_humidity;BME280_pressure;Samples;Min_cycle;Max_cycle;Signal;HPM_P1;HPM_P2
2022/04/09 00:00:14;;;;;;;19.85;4.28;;;10.40;99.90;;;;;;5096510;28;20085;-76
2022/04/09 00:02:40;;;;;;;17.17;5.00;;;10.40;99.90;;;;;;5096077;28;20051;-76
2022/04/09 00:05:07;;;;;;;23.88;6.60;;;10.30;99.90;;;;;;5096433;28;20024;-76
2022/04/09 00:07:33;;;;;;;13.70;4.13;;;10.30;99.90;;;;;;5097759;28;20032;-76
2022/04/09 00:09:59;;;;;;;18.00;4.20;;;10.20;99.90;;;;;;5096590;28;20035;-76
2022/04/09 00:12:25;;;;;;;21.25;5.35;;;10.20;99.90;;;;;;5097829;28;20024;-76
2022/04/09 00:14:52;;;;;;;15.27;5.35;;;10.20;99.90;;;;;;5097957;28;20060;-76
2022/04/09 00:17:17;;;;;;;12.73;4.78;;;10.10;99.90;;;;;;5096384;28;20369;-76
2022/04/09 00:19:43;;;;;;;27.38;7.32;;;10.10;99.90;;;;;;5095716;28;20107;-76
2022/04/09 00:22:10;;;;;;;12.60;5.00;;;10.10;99.90;;;;;;5096017;28;20400;-77
2022/04/09 00:24:36;;;;;;;14.63;4.15;;;10.10;99.90;;;;;;5097557;28;20059;-76
2022/04/09 00:27:03;;;;;;;14.60;5.05;;;10.10;99.90;;;;;;5097087;28;20028;-76
2022/04/09 00:29:29;;;;;;;25.10;4.90;;;10.10;99.90;;;;;;5088579;28;20107;-76
2022/04/09 00:31:55;;;;;;;28.17;5.40;;;10.00;99.90;;;;;;5091685;28;20048;-76
2022/04/09 00:34:20;;;;;;;13.32;5.10;;;10.00;99.90;;;;;;5097291;28;20032;-75
2022/04/09 00:36:46;;;;;;;25.50;8.15;;;10.00;99.90;;;;;;5097105;28;20091;-76
2022/04/09 00:39:12;;;;;;;21.63;5.63;;;10.00;99.90;;;;;;5095959;28;20059;-76
2022/04/09 00:41:47;;;;;;;29.77;5.75;;;10.00;99.90;;;;;;5097277;28;20016;-76
2022/04/09 00:44:17;;;;;;;12.82;4.55;;;9.90;99.90;;;;;;5096194;28;20024;-75
2022/04/09 00:46:44;;;;;;;17.48;5.53;;;9.80;99.90;;;;;;5096986;28;20055;-75
2022/04/09 00:49:10;;;;;;;20.38;4.82;;;9.90;99.90;;;;;;5095573;28;20032;-77
2022/04/09 00:51:39;;;;;;;21.02;5.03;;;9.80;99.90;;;;;;5097426;28;20112;-76
2022/04/09 00:54:06;;;;;;;20.70;4.85;;;9.80;99.90;;;;;;5101301;28;20028;-75
2022/04/09 00:56:33;;;;;;;14.77;5.20;;;9.70;99.90;;;;;;5101436;28;20021;-76
2022/04/09 00:59:02;;;;;;;17.52;4.80;;;9.80;99.90;;;;;;5101299;28;20072;-76
2022/04/09 01:01:32;;;;;;;17.70;4.50;;;9.80;99.90;;;;;;5100984;28;20516;-77
2022/04/09 01:03:59;;;;;;;11.40;4.05;;;9.80;99.90;;;;;;5100810;28;20028;-75
2022/04/09 01:06:25;;;;;;;16.35;5.15;;;9.70;99.90;;;;;;5100925;28;20019;-76
2022/04/09 01:08:51;;;;;;;22.88;6.00;;;9.70;99.90;;;;;;5099407;28;20050;-76
2022/04/09 01:11:17;;;;;;;19.67;5.47;;;9.70;99.90;;;;;;5098893;28;20024;-76
2022/04/09 01:13:46;;;;;;;17.63;6.10;;;9.60;99.90;;;;;;5101030;28;20027;-77
2022/04/09 01:16:13;;;;;;;28.92;5.57;;;9.60;99.90;;;;;;5099391;28;20024;-77
2022/04/09 01:18:41;;;;;;;13.50;5.28;;;9.60;99.90;;;;;;5099219;28;20027;-76
2022/04/09 01:21:07;;;;;;;24.88;5.05;;;9.60;99.90;;;;;;5099325;28;20051;-76
2022/04/09 01:23:33;;;;;;;19.23;6.47;;;9.50;99.90;;;;;;5100790;28;20451;-76
2022/04/09 01:26:00;;;;;;;15.05;4.82;;;9.40;99.90;;;;;;5100754;28;20027;-75
2022/04/09 01:28:26;;;;;;;20.85;4.10;;;9.40;99.90;;;;;;5100823;28;20053;-76
2022/04/09 01:30:52;;;;;;;21.60;5.47;;;9.30;99.90;;;;;;5101233;28;20024;-76
2022/04/09 01:33:20;;;;;;;19.17;5.30;;;9.30;99.90;;;;;;5100555;28;20027;-76
2022/04/09 01:35:47;;;;;;;17.13;5.03;;;9.30;99.90;;;;;;5099535;28;20012;-76
2022/04/09 01:38:14;;;;;;;19.80;4.78;;;9.30;99.90;;;;;;5100675;28;20100;-76
2022/04/09 01:40:40;;;;;;;16.42;4.38;;;9.30;99.90;;;;;;5099108;28;20020;-76
2022/04/09 01:43:07;;;;;;;21.58;5.63;;;9.30;99.90;;;;;;5100227;28;20039;-76
2022/04/09 01:45:33;;;;;;;14.80;3.80;;;9.20;99.90;;;;;;5097501;28;20127;-77
2022/04/09 01:48:00;;;;;;;15.90;4.43;;;9.20;99.90;;;;;;5097352;28;20028;-76
2022/04/09 01:50:26;;;;;;;15.45;4.80;;;9.20;99.90;;;;;;5099065;28;20059;-76
2022/04/09 01:52:52;;;;;;;20.05;5.22;;;9.20;99.90;;;;;;5098729;28;20899;-76
2022/04/09 01:55:19;;;;;;;17.88;4.93;;;9.20;99.90;;;;;;5099225;28;20048;-76
2022/04/09 01:57:46;;;;;;;25.85;5.03;;;9.10;99.90;;;;;;5097334;28;20028;-76
2022/04/09 02:00:12;;;;;;;17.42;5.05;;;9.10;99.90;;;;;;5098982;28;20373;-76
2022/04/09 02:02:38;;;;;;;11.43;3.78;;;9.10;99.90;;;;;;5096746;28;20099;-76
2022/04/09 02:05:05;;;;;;;17.30;4.53;;;9.10;99.90;;;;;;5097459;28;20103;-75
2022/04/09 02:07:31;;;;;;;14.27;4.90;;;9.10;99.90;;;;;;5098587;28;20039;-75
2022/04/09 02:09:57;;;;;;;17.55;5.25;;;9.00;99.90;;;;;;5097375;28;20035;-76
2022/04/09 02:12:23;;;;;;;23.38;6.32;;;9.10;99.90;;;;;;5098347;28;20464;-76
2022/04/09 02:14:49;;;;;;;16.58;4.43;;;9.10;99.90;;;;;;5098780;28;20049;-75
2022/04/09 02:17:15;;;;;;;17.63;4.82;;;9.10;99.90;;;;;;5098409;28;20012;-75
2022/04/09 02:19:41;;;;;;;20.73;4.38;;;9.10;99.90;;;;;;5098442;28;20020;-75
2022/04/09 02:22:07;;;;;;;16.25;5.95;;;9.00;99.90;;;;;;5097191;28;20069;-76
2022/04/09 02:24:33;;;;;;;24.10;5.05;;;9.00;99.90;;;;;;5097215;28;20412;-75
2022/04/09 02:26:59;;;;;;;11.73;4.20;;;9.00;99.90;;;;;;5098184;28;20091;-76
2022/04/09 02:29:25;;;;;;;17.30;5.30;;;9.00;99.90;;;;;;5098719;28;20376;-76
2022/04/09 02:31:51;;;;;;;26.13;4.75;;;9.00;99.90;;;;;;5098306;28;20024;-76
2022/04/09 02:34:16;;;;;;;14.13;5.22;;;9.00;99.90;;;;;;5096635;28;20030;-75
2022/04/09 02:36:42;;;;;;;21.20;5.45;;;8.90;99.90;;;;;;5096894;28;20024;-75
2022/04/09 02:39:08;;;;;;;26.58;4.95;;;8.90;99.90;;;;;;5098426;28;20020;-75
2022/04/09 02:41:34;;;;;;;20.05;5.90;;;8.90;99.90;;;;;;5098208;28;20022;-75
2022/04/09 02:44:00;;;;;;;25.85;5.63;;;8.90;99.90;;;;;;5098386;28;20103;-76
2022/04/09 02:46:26;;;;;;;15.27;4.70;;;8.90;99.90;;;;;;5047582;28;1464691;-75
2022/04/09 02:48:52;;;;;;;20.42;5.97;;;8.90;99.90;;;;;;5099220;28;20059;-76
2022/04/09 02:51:18;;;;;;;20.58;5.35;;;8.90;99.90;;;;;;5097835;28;20047;-77
2022/04/09 02:53:44;;;;;;;20.33;4.88;;;8.90;99.90;;;;;;5099205;28;20016;-76
2022/04/09 02:56:11;;;;;;;15.77;5.10;;;8.80;99.90;;;;;;5099154;28;20063;-75
2022/04/09 02:58:36;;;;;;;15.27;4.45;;;8.80;99.90;;;;;;5097652;28;20017;-76
2022/04/09 03:01:03;;;;;;;20.85;5.10;;;8.80;99.90;;;;;;5097334;28;20020;-76
2022/04/09 03:03:28;;;;;;;16.67;5.47;;;8.70;99.90;;;;;;5098638;28;20077;-75
2022/04/09 03:05:54;;;;;;;32.88;6.80;;;8.70;99.90;;;;;;5097326;28;20028;-75
2022/04/09 03:08:20;;;;;;;21.30;6.75;;;8.70;99.90;;;;;;5097470;28;20042;-75
2022/04/09 03:10:46;;;;;;;20.52;5.53;;;8.70;99.90;;;;;;5098674;28;20530;-76
2022/04/09 03:13:12;;;;;;;18.80;5.95;;;8.60;99.90;;;;;;5096806;28;20031;-76
2022/04/09 03:15:38;;;;;;;25.48;5.93;;;8.60;99.90;;;;;;5096663;28;20024;-77
2022/04/09 03:18:04;;;;;;;28.05;6.78;;;8.60;99.90;;;;;;5098624;28;20017;-75
2022/04/09 03:20:30;;;;;;;17.08;5.53;;;8.60;99.90;;;;;;5098405;28;20098;-76
2022/04/09 03:22:56;;;;;;;25.40;5.93;;;8.70;99.90;;;;;;5098532;28;20035;-76
2022/04/09 03:25:22;;;;;;;22.67;5.85;;;8.70;99.90;;;;;;5094837;28;20107;-77
2022/04/09 03:27:47;;;;;;;21.63;6.57;;;8.60;99.90;;;;;;5096961;28;20082;-76
2022/04/09 03:30:13;;;;;;;19.63;5.97;;;8.60;99.90;;;;;;5084457;28;20029;-76
2022/04/09 03:32:41;;;;;;;11.93;5.45;;;8.60;99.90;;;;;;5098104;28;20103;-76
2022/04/09 03:35:09;;;;;;;10.65;4.90;;;8.60;99.90;;;;;;5098069;28;20028;-77
2022/04/09 03:37:36;;;;;;;17.27;5.95;;;8.70;99.90;;;;;;5096852;28;20499;-75
2022/04/09 03:40:04;;;;;;;20.05;7.05;;;8.70;99.90;;;;;;5096709;28;20463;-74
2022/04/09 03:42:31;;;;;;;20.08;5.75;;;8.70;99.90;;;;;;5096231;28;20024;-78
2022/04/09 03:44:57;;;;;;;17.95;6.18;;;8.70;99.90;;;;;;5096454;28;20024;-74
2022/04/09 03:47:23;;;;;;;20.05;5.32;;;8.80;99.90;;;;;;5097778;28;20035;-75
2022/04/09 03:49:49;;;;;;;19.95;4.88;;;8.80;99.90;;;;;;5096783;28;20031;-75
2022/04/09 03:52:15;;;;;;;13.00;5.38;;;8.90;99.90;;;;;;5097989;28;20048;-75
2022/04/09 03:54:41;;;;;;;18.83;6.32;;;8.80;99.90;;;;;;5096557;28;20062;-75
2022/04/09 03:57:07;;;;;;;20.85;5.63;;;8.90;99.90;;;;;;5096728;28;20016;-75
2022/04/09 03:59:33;;;;;;;22.70;5.93;;;8.90;99.90;;;;;;5097883;28;20472;-75
2022/04/09 04:01:59;;;;;;;17.05;7.13;;;8.80;99.90;;;;;;5098003;28;20047;-75
2022/04/09 04:04:24;;;;;;;19.05;5.82;;;8.80;99.90;;;;;;5097895;28;20708;-75
2022/04/09 04:06:50;;;;;;;19.83;5.57;;;8.80;99.90;;;;;;5098044;28;20023;-75
2022/04/09 04:09:17;;;;;;;17.52;6.30;;;8.80;99.90;;;;;;5097978;28;20032;-75
2022/04/09 04:11:46;;;;;;;15.90;5.50;;;8.70;99.90;;;;;;5097588;28;20074;-75
2022/04/09 04:14:12;;;;;;;18.25;5.22;;;8.70;99.90;;;;;;5097439;28;20038;-75
2022/04/09 04:16:38;;;;;;;28.63;6.60;;;8.70;99.90;;;;;;5096235;28;20016;-74
2022/04/09 04:19:04;;;;;;;17.10;6.50;;;8.70;99.90;;;;;;5097122;28;20077;-74
2022/04/09 04:21:30;;;;;;;19.63;6.00;;;8.70;99.90;;;;;;5096157;28;20027;-76
2022/04/09 04:23:56;;;;;;;20.05;5.93;;;8.70;99.90;;;;;;5097308;28;20024;-75
2022/04/09 04:26:22;;;;;;;17.65;5.60;;;8.80;99.90;;;;;;5096323;28;20035;-75
2022/04/09 04:28:48;;;;;;;22.60;5.95;;;8.80;99.90;;;;;;5095786;28;20028;-77
2022/04/09 04:31:20;;;;;;;23.60;5.80;;;8.80;99.90;;;;;;5096020;28;20020;-77
2022/04/09 04:33:46;;;;;;;23.85;7.53;;;8.80;99.90;;;;;;5096829;28;20052;-77
2022/04/09 04:36:12;;;;;;;22.60;5.57;;;8.80;99.90;;;;;;5096127;28;20028;-75
2022/04/09 04:38:38;;;;;;;17.02;5.03;;;8.80;99.90;;;;;;5095866;28;20084;-76
2022/04/09 04:41:05;;;;;;;19.05;6.25;;;8.80;99.90;;;;;;5096106;28;20078;-77
2022/04/09 04:43:32;;;;;;;19.30;6.20;;;8.80;99.90;;;;;;5095803;28;20024;-77
2022/04/09 04:45:58;;;;;;;25.63;6.75;;;8.80;99.90;;;;;;5097113;28;20048;-77
2022/04/09 04:48:25;;;;;;;24.00;5.50;;;8.80;99.90;;;;;;5096735;28;20115;-74
2022/04/09 04:50:51;;;;;;;27.88;5.82;;;8.80;99.90;;;;;;5097293;28;20025;-75
2022/04/09 04:53:17;;;;;;;17.88;5.68;;;8.80;99.90;;;;;;5095607;28;20054;-74
2022/04/09 04:55:42;;;;;;;22.67;5.45;;;8.80;99.90;;;;;;5096760;28;20016;-76
2022/04/09 04:58:08;;;;;;;23.90;5.57;;;8.80;99.90;;;;;;5096826;28;20548;-75
2022/04/09 05:00:34;;;;;;;17.83;7.85;;;8.80;99.90;;;;;;5095766;28;20016;-75
2022/04/09 05:03:00;;;;;;;13.90;4.68;;;8.90;99.90;;;;;;5096735;28;20046;-75
2022/04/09 05:05:26;;;;;;;19.52;5.47;;;8.90;99.90;;;;;;5095829;28;20450;-75
2022/04/09 05:07:53;;;;;;;19.90;5.93;;;8.90;99.90;;;;;;5096861;28;20185;-74
2022/04/09 05:10:21;;;;;;;30.98;6.53;;;8.90;99.90;;;;;;5096941;28;20412;-75
2022/04/09 05:12:49;;;;;;;20.38;5.45;;;8.90;99.90;;;;;;5095552;28;20400;-75
2022/04/09 05:15:16;;;;;;;20.15;5.60;;;8.90;99.90;;;;;;5097026;28;20017;-77
2022/04/09 05:17:42;;;;;;;22.38;5.50;;;8.90;99.90;;;;;;5096603;28;20035;-77
2022/04/09 05:20:11;;;;;;;15.35;5.13;;;9.00;99.90;;;;;;5097136;28;20540;-77
2022/04/09 05:22:41;;;;;;;26.10;6.47;;;9.00;99.90;;;;;;5097183;28;20031;-77
2022/04/09 05:25:09;;;;;;;30.85;5.88;;;9.00;99.90;;;;;;5096111;28;20107;-76
2022/04/09 05:27:35;;;;;;;29.10;6.68;;;9.00;99.90;;;;;;5095832;28;20498;-77
2022/04/09 05:30:01;;;;;;;18.13;5.57;;;9.00;99.90;;;;;;5087040;28;20056;-77
2022/04/09 05:32:26;;;;;;;18.17;5.70;;;9.00;99.90;;;;;;5078722;28;20032;-76
2022/04/09 05:34:52;;;;;;;27.13;5.72;;;9.00;99.90;;;;;;5081593;28;20024;-77
2022/04/09 05:37:18;;;;;;;30.25;6.53;;;9.00;99.90;;;;;;5092208;28;20115;-76
2022/04/09 05:39:46;;;;;;;22.88;6.25;;;9.00;99.90;;;;;;5098995;28;20074;-81
2022/04/09 05:42:11;;;;;;;33.40;6.00;;;9.00;99.90;;;;;;5098088;28;20389;-78
2022/04/09 05:44:38;;;;;;;23.33;6.57;;;9.10;99.90;;;;;;5099240;28;20077;-78
2022/04/09 05:47:04;;;;;;;18.80;5.53;;;9.00;99.90;;;;;;5099298;28;20040;-78
2022/04/09 05:49:30;;;;;;;32.35;7.28;;;9.10;99.90;;;;;;5100241;28;20036;-78
2022/04/09 05:51:57;;;;;;;17.70;6.20;;;9.00;99.90;;;;;;5100383;28;20077;-78
2022/04/09 05:54:23;;;;;;;24.55;5.75;;;9.00;99.90;;;;;;5100241;28;20024;-78
2022/04/09 05:56:49;;;;;;;19.67;6.75;;;9.00;99.90;;;;;;5098975;28;20053;-75
2022/04/09 05:59:14;;;;;;;19.42;5.78;;;9.10;99.90;;;;;;5090407;28;20029;-78
2022/04/09 06:01:40;;;;;;;20.90;5.53;;;9.10;99.90;;;;;;5086704;28;20024;-78
2022/04/09 06:04:07;;;;;;;24.05;6.25;;;9.10;99.90;;;;;;5099083;28;20024;-78
2022/04/09 06:06:33;;;;;;;23.77;5.85;;;9.10;99.90;;;;;;5088991;28;20031;-78
2022/04/09 06:08:59;;;;;;;16.85;4.85;;;9.10;99.90;;;;;;5093977;28;20170;-78
2022/04/09 06:11:25;;;;;;;15.35;5.70;;;9.20;99.90;;;;;;5099305;28;20020;-78
2022/04/09 06:13:51;;;;;;;26.27;6.50;;;9.20;99.90;;;;;;5097662;28;20111;-78
2022/04/09 06:16:17;;;;;;;17.90;4.90;;;9.20;99.90;;;;;;5099113;28;20103;-78
2022/04/09 06:18:43;;;;;;;14.88;5.07;;;9.20;99.90;;;;;;5088493;28;20548;-78
2022/04/09 06:21:09;;;;;;;16.95;5.30;;;9.30;99.90;;;;;;5092815;28;20016;-78
2022/04/09 06:23:35;;;;;;;16.33;5.68;;;9.30;99.90;;;;;;5099604;28;20031;-77
2022/04/09 06:26:02;;;;;;;23.27;5.38;;;9.30;99.90;;;;;;5099580;28;20073;-79
2022/04/09 06:28:28;;;;;;;22.15;5.78;;;9.30;99.90;;;;;;5099027;28;20518;-78
2022/04/09 06:30:54;;;;;;;21.90;5.45;;;9.30;99.90;;;;;;5085210;28;20090;-78
2022/04/09 06:33:23;;;;;;;20.45;5.68;;;9.30;99.90;;;;;;5099421;28;20032;-79
2022/04/09 06:35:49;;;;;;;16.40;5.53;;;9.30;99.90;;;;;;5098200;28;20430;-79
2022/04/09 06:38:15;;;;;;;17.38;6.45;;;9.30;99.90;;;;;;5098295;28;20020;-78
2022/04/09 06:40:41;;;;;;;19.52;7.00;;;9.30;99.90;;;;;;5099868;28;20052;-78
2022/04/09 06:43:08;;;;;;;21.45;5.43;;;9.30;99.90;;;;;;5097322;28;20024;-78
2022/04/09 06:45:34;;;;;;;19.10;5.55;;;9.20;99.90;;;;;;5087285;28;20074;-78
2022/04/09 06:48:00;;;;;;;14.43;4.97;;;9.10;99.90;;;;;;5098534;28;20102;-78
2022/04/09 06:50:29;;;;;;;10.45;4.45;;;9.00;99.90;;;;;;5098330;28;20028;-78
2022/04/09 06:52:54;;;;;;;8.15;3.80;;;8.90;99.90;;;;;;5098928;28;20028;-78
2022/04/09 06:55:20;;;;;;;15.80;4.72;;;8.80;99.90;;;;;;5098882;28;20038;-79
2022/04/09 06:57:46;;;;;;;11.48;4.07;;;8.80;99.90;;;;;;5097430;28;20059;-79
2022/04/09 07:00:16;;;;;;;13.25;4.32;;;8.70;99.90;;;;;;5096162;28;20035;-78
2022/04/09 07:02:42;;;;;;;18.30;5.70;;;8.70;99.90;;;;;;5098345;28;20024;-79
2022/04/09 07:05:09;;;;;;;9.30;4.65;;;8.70;99.90;;;;;;5097505;28;20259;-77
2022/04/09 07:07:35;;;;;;;11.88;4.32;;;8.80;99.90;;;;;;5098664;28;20072;-79
2022/04/09 07:10:11;;;;;;;9.23;3.85;;;8.90;99.90;;;;;;5097731;28;20436;-77
2022/04/09 07:12:38;;;;;;;17.27;4.63;;;8.90;99.90;;;;;;5098353;28;20020;-79
2022/04/09 07:15:04;;;;;;;9.73;3.97;;;9.00;99.90;;;;;;5098651;28;20108;-80
2022/04/09 07:17:31;;;;;;;18.40;5.00;;;9.00;99.90;;;;;;5096272;28;20056;-79
2022/04/09 07:20:01;;;;;;;21.80;5.60;;;9.10;99.90;;;;;;5091182;28;20028;-79
2022/04/09 07:22:27;;;;;;;13.23;5.57;;;9.10;99.90;;;;;;5079314;28;20035;-79
2022/04/09 07:24:54;;;;;;;21.80;4.25;;;9.10;99.90;;;;;;5076264;28;20029;-81
2022/04/09 07:27:20;;;;;;;12.45;4.60;;;9.10;99.90;;;;;;5080126;28;20021;-79
2022/04/09 07:29:47;;;;;;;10.32;3.92;;;9.20;99.90;;;;;;5088462;28;20035;-79
2022/04/09 07:32:13;;;;;;;13.15;4.18;;;9.20;99.90;;;;;;5095927;28;20112;-79
2022/04/09 07:34:39;;;;;;;8.15;3.80;;;9.30;99.90;;;;;;5098054;28;20498;-79
2022/04/09 07:37:05;;;;;;;10.65;4.00;;;9.30;99.90;;;;;;5091751;28;20024;-79
2022/04/09 07:39:31;;;;;;;9.68;3.92;;;9.40;99.90;;;;;;5098048;28;20028;-77
2022/04/09 07:41:57;;;;;;;14.32;3.80;;;9.50;99.90;;;;;;5097198;28;20024;-77
2022/04/09 07:44:23;;;;;;;17.73;4.63;;;9.50;99.90;;;;;;5095999;28;20036;-76
2022/04/09 07:46:52;;;;;;;10.20;4.07;;;9.60;99.90;;;;;;5094816;28;20067;-77
2022/04/09 07:49:17;;;;;;;11.10;3.67;;;9.60;99.90;;;;;;5087571;28;20043;-76
2022/04/09 07:51:43;;;;;;;14.23;4.78;;;9.70;99.90;;;;;;5097420;28;20415;-77
2022/04/09 07:54:10;;;;;;;13.00;3.80;;;9.90;99.90;;;;;;5087740;28;20020;-76
2022/04/09 07:56:35;;;;;;;11.13;3.42;;;9.90;99.90;;;;;;5097619;28;20081;-76
2022/04/09 07:59:01;;;;;;;13.93;3.70;;;10.00;99.90;;;;;;5089769;28;20028;-76
2022/04/09 08:01:27;;;;;;;6.57;3.63;;;10.00;99.90;;;;;;5095684;28;20020;-76
2022/04/09 08:03:54;;;;;;;11.02;4.03;;;10.10;99.90;;;;;;5096134;28;20056;-76
2022/04/09 08:06:20;;;;;;;13.60;4.30;;;10.10;99.90;;;;;;5096440;28;20020;-76
2022/04/09 08:08:46;;;;;;;13.73;3.80;;;10.10;99.90;;;;;;5096278;28;20032;-76
2022/04/09 08:11:12;;;;;;;13.23;4.20;;;10.10;99.90;;;;;;5096396;28;20024;-75
2022/04/09 08:13:39;;;;;;;10.43;3.97;;;10.20;99.90;;;;;;5095912;28;20035;-76
2022/04/09 08:16:05;;;;;;;10.98;4.55;;;10.20;99.90;;;;;;5097175;28;20045;-76
2022/04/09 08:18:30;;;;;;;10.40;4.15;;;10.30;99.90;;;;;;5095974;28;20016;-76
2022/04/09 08:20:56;;;;;;;10.10;3.60;;;10.30;99.90;;;;;;5096112;28;20035;-76
2022/04/09 08:23:22;;;;;;;14.27;4.53;;;10.40;99.90;;;;;;5097638;28;20028;-76
2022/04/09 08:25:48;;;;;;;10.77;4.13;;;10.40;99.90;;;;;;5097317;28;20484;-76
2022/04/09 08:28:14;;;;;;;10.23;3.97;;;10.40;99.90;;;;;;5095979;28;20035;-76
2022/04/09 08:30:41;;;;;;;14.38;3.70;;;10.40;99.90;;;;;;5097361;28;20027;-77
2022/04/09 08:33:08;;;;;;;8.30;3.45;;;10.60;99.90;;;;;;5095683;28;20032;-76
2022/04/09 08:35:34;;;;;;;9.80;3.05;;;10.60;99.90;;;;;;5097061;28;20020;-76
2022/04/09 08:38:01;;;;;;;13.65;3.72;;;10.60;99.90;;;;;;5097224;28;20020;-76
2022/04/09 08:40:27;;;;;;;8.23;3.63;;;10.70;99.90;;;;;;5095833;28;20043;-76
2022/04/09 08:42:54;;;;;;;11.93;3.53;;;10.80;99.90;;;;;;5097076;28;20028;-76
2022/04/09 08:45:20;;;;;;;7.93;3.58;;;10.80;99.90;;;;;;5095446;28;20055;-76
2022/04/09 08:47:47;;;;;;;11.75;4.07;;;10.90;99.90;;;;;;5096609;28;20434;-76
2022/04/09 08:50:14;;;;;;;8.95;3.08;;;10.80;99.90;;;;;;5095650;28;20506;-77
2022/04/09 08:52:47;;;;;;;10.07;3.47;;;10.90;99.90;;;;;;5094024;28;20422;-78
2022/04/09 08:55:13;;;;;;;8.65;3.13;;;10.90;99.90;;;;;;5087375;28;20101;-76
2022/04/09 08:57:40;;;;;;;10.57;2.92;;;10.90;99.90;;;;;;5097058;28;20107;-76
2022/04/09 09:00:10;;;;;;;11.10;3.72;;;10.90;99.90;;;;;;5097403;28;20024;-77
2022/04/09 09:02:37;;;;;;;10.77;3.97;;;10.80;99.90;;;;;;5095240;28;20365;-76
2022/04/09 09:05:04;;;;;;;10.32;3.50;;;10.80;99.90;;;;;;5097134;28;20046;-77
2022/04/09 09:07:30;;;;;;;10.18;3.88;;;10.70;99.90;;;;;;5097184;28;20024;-76
2022/04/09 09:10:15;;;;;;;9.45;2.85;;;10.60;99.90;;;;;;5096598;28;20039;-79
2022/04/09 09:12:41;;;;;;;12.40;3.22;;;10.40;99.90;;;;;;5097181;28;20012;-80
2022/04/09 09:15:07;;;;;;;7.75;3.40;;;10.40;99.90;;;;;;5086221;28;20095;-80
2022/04/09 09:17:33;;;;;;;9.55;3.30;;;10.30;99.90;;;;;;5099719;28;20075;-79
2022/04/09 09:20:00;;;;;;;7.22;3.45;;;10.30;99.90;;;;;;5097216;28;20074;-78
2022/04/09 09:22:39;;;;;;;9.38;3.20;;;10.40;99.90;;;;;;5100998;28;20023;-81
2022/04/09 09:25:08;;;;;;;8.15;2.95;;;10.60;99.90;;;;;;5098903;28;20081;-77
2022/04/09 09:27:34;;;;;;;5.63;3.03;;;10.70;99.90;;;;;;5098867;28;20476;-80
2022/04/09 09:30:00;;;;;;;9.75;3.63;;;10.80;99.90;;;;;;5083108;28;20062;-81
2022/04/09 09:32:31;;;;;;;9.13;2.70;;;10.90;99.90;;;;;;5089805;28;20008;-85
2022/04/09 09:35:00;;;;;;;9.77;3.33;;;10.90;99.90;;;;;;5097589;28;20032;-79
2022/04/09 09:37:28;;;;;;;6.25;2.85;;;10.80;99.90;;;;;;5099450;28;20042;-82
2022/04/09 09:39:55;;;;;;;9.98;3.78;;;10.90;99.90;;;;;;5097826;28;20584;-78
2022/04/09 09:42:22;;;;;;;10.32;3.53;;;10.90;99.90;;;;;;5099068;28;20081;-78
2022/04/09 09:44:48;;;;;;;7.43;3.20;;;11.00;99.90;;;;;;5099230;28;20149;-77
2022/04/09 09:47:15;;;;;;;14.25;3.78;;;11.00;99.90;;;;;;5091997;28;20043;-78
2022/04/09 09:49:53;;;;;;;12.60;3.50;;;11.20;99.90;;;;;;5088425;28;20031;-79
2022/04/09 09:52:30;;;;;;;8.65;3.17;;;11.40;99.90;;;;;;5098675;28;20113;-83
2022/04/09 09:54:59;;;;;;;11.15;3.72;;;11.50;99.90;;;;;;5096583;28;20476;-83
2022/04/09 09:57:29;;;;;;;12.82;3.90;;;11.80;99.90;;;;;;5099848;28;20422;-81
2022/04/09 10:00:01;;;;;;;9.63;3.93;;;12.00;99.90;;;;;;5096875;28;20021;-77
2022/04/09 10:02:27;;;;;;;12.52;4.10;;;12.10;99.90;;;;;;5098263;28;20046;-76
2022/04/09 10:04:54;;;;;;;6.65;2.88;;;12.40;99.90;;;;;;5099936;28;20035;-78
2022/04/09 10:07:21;;;;;;;9.70;3.00;;;12.60;99.90;;;;;;5098987;28;20032;-76
2022/04/09 10:09:49;;;;;;;8.38;3.70;;;12.40;99.90;;;;;;5098462;28;20067;-77
2022/04/09 10:12:18;;;;;;;4.07;2.42;;;12.30;99.90;;;;;;5099448;28;20027;-76
2022/04/09 10:14:52;;;;;;;12.30;3.10;;;12.10;99.90;;;;;;5098258;28;20388;-79
2022/04/09 10:17:19;;;;;;;3.80;2.70;;;11.90;99.90;;;;;;5083121;28;20099;-78
2022/04/09 10:19:55;;;;;;;7.95;3.55;;;11.80;99.90;;;;;;5098702;28;20016;-77
2022/04/09 10:22:29;;;;;;;6.97;2.75;;;11.80;99.90;;;;;;5091891;28;20024;-78
2022/04/09 10:24:56;;;;;;;9.85;3.08;;;11.80;99.90;;;;;;5093952;28;20024;-79
2022/04/09 10:27:40;;;;;;;6.32;4.18;;;11.80;99.90;;;;;;5098180;28;20404;-81
2022/04/09 10:30:25;;;;;;;7.40;3.22;;;11.80;99.90;;;;;;5099518;28;20018;-76
2022/04/09 10:32:59;;;;;;;13.52;3.88;;;12.10;99.90;;;;;;5098765;28;20093;-79
2022/04/09 10:35:26;;;;;;;24.73;14.32;;;12.50;99.90;;;;;;5092931;28;20071;-77
2022/04/09 10:38:10;;;;;;;7.40;2.60;;;12.80;99.90;;;;;;5098505;28;20027;-77
2022/04/09 10:40:56;;;;;;;5.38;3.00;;;13.00;99.90;;;;;;5097928;28;20016;-78
2022/04/09 10:43:21;;;;;;;5.25;2.60;;;13.00;99.90;;;;;;5093510;28;20502;-77
2022/04/09 10:46:06;;;;;;;4.65;2.28;;;13.20;99.90;;;;;;5097945;28;20411;-77
2022/04/09 10:48:36;;;;;;;9.10;2.10;;;13.20;99.90;;;;;;5099004;28;20032;-78
2022/04/09 10:51:12;;;;;;;6.90;2.60;;;12.90;99.90;;;;;;5099147;28;20028;-77
2022/04/09 10:53:48;;;;;;;6.07;1.92;;;12.90;99.90;;;;;;5098868;28;20028;-81
2022/04/09 10:56:24;;;;;;;2.53;2.00;;;13.00;99.90;;;;;;5096343;28;20480;-78
2022/04/09 10:59:13;;;;;;;6.45;2.22;;;13.10;99.90;;;;;;5097508;28;20032;-77
2022/04/09 11:01:50;;;;;;;5.05;2.30;;;13.10;99.90;;;;;;5098902;28;20020;-78
2022/04/09 11:04:43;;;;;;;3.72;2.10;;;13.20;99.90;;;;;;5097417;28;20039;-77
2022/04/09 11:07:22;;;;;;;3.63;2.17;;;13.50;99.90;;;;;;5098450;28;20082;-78
2022/04/09 11:10:01;;;;;;;6.28;2.15;;;13.40;99.70;;;;;;5098095;28;20123;-77
2022/04/09 11:12:31;;;;;;;1.88;1.63;;;13.60;99.90;;;;;;5096928;28;20042;-79
2022/04/09 11:14:59;;;;;;;5.00;2.20;;;13.40;99.90;;;;;;5097412;28;20077;-77
2022/04/09 11:17:25;;;;;;;4.60;2.30;;;13.00;99.90;;;;;;5096964;28;20029;-80
2022/04/09 11:19:52;;;;;;;3.35;2.35;;;12.70;99.90;;;;;;5097154;28;20024;-79
2022/04/09 11:22:18;;;;;;;2.03;1.83;;;12.70;99.90;;;;;;5098576;28;20020;-78
2022/04/09 11:24:44;;;;;;;3.55;2.05;;;12.50;99.90;;;;;;5097212;28;20031;-77
2022/04/09 11:27:11;;;;;;;2.42;1.60;;;12.50;99.90;;;;;;5096865;28;20084;-77
2022/04/09 11:29:38;;;;;;;1.70;1.60;;;12.50;99.90;;;;;;5098306;28;20543;-77
2022/04/09 11:32:04;;;;;;;4.80;1.83;;;12.60;99.90;;;;;;5099359;28;20034;-78
2022/04/09 11:35:12;;;;;;;5.72;1.90;;;12.70;99.90;;;;;;5096724;28;20103;-79
2022/04/09 11:37:41;;;;;;;3.17;1.70;;;12.70;99.90;;;;;;5067905;28;20024;-79
2022/04/09 11:40:08;;;;;;;2.92;1.65;;;12.60;99.90;;;;;;5078155;28;20020;-79
2022/04/09 11:42:49;;;;;;;2.97;1.90;;;12.80;99.90;;;;;;5085546;28;20522;-78
2022/04/09 11:45:21;;;;;;;;;;;12.80;99.90;;;;;;5097633;28;20039;-78
2022/04/09 11:47:48;;;;;;;2.30;1.60;;;12.80;99.90;;;;;;5098103;28;19904;-77
2022/04/09 11:50:15;;;;;;;3.67;2.17;;;13.10;99.90;;;;;;5097831;28;20020;-76
2022/04/09 11:52:42;;;;;;;2.55;2.00;;;13.10;99.90;;;;;;5097676;28;20044;-78
2022/04/09 11:55:15;;;;;;;2.00;1.60;;;12.90;99.80;;;;;;5092470;28;20485;-77
2022/04/09 11:57:54;;;;;;;3.05;1.60;;;12.80;99.90;;;;;;5079905;28;20051;-77
2022/04/09 12:00:27;;;;;;;1.95;1.77;;;12.80;99.40;;;;;;5076334;28;20538;-77
2022/04/09 12:02:53;;;;;;;4.65;1.65;;;13.10;99.30;;;;;;5087963;28;20052;-75
2022/04/09 12:05:19;;;;;;;1.60;1.50;;;13.10;98.50;;;;;;5078606;28;20076;-78
2022/04/09 12:07:48;;;;;;;1.60;1.50;;;13.10;97.90;;;;;;5079935;28;20016;-76
2022/04/09 12:10:24;;;;;;;1.85;1.65;;;13.00;98.50;;;;;;5079096;28;20024;-75
2022/04/09 12:13:07;;;;;;;2.13;1.70;;;13.20;98.80;;;;;;5077235;28;20020;-78
2022/04/09 12:15:34;;;;;;;2.97;1.73;;;13.50;99.10;;;;;;5080323;28;20028;-78
2022/04/09 12:18:04;;;;;;;4.72;1.85;;;13.70;99.10;;;;;;5085263;28;20063;-76
2022/04/09 12:20:40;;;;;;;3.72;1.70;;;13.90;99.00;;;;;;5083079;28;20067;-79
2022/04/09 12:23:07;;;;;;;2.83;1.83;;;13.50;98.70;;;;;;5086827;28;20160;-77
2022/04/09 12:25:44;;;;;;;2.05;1.60;;;13.30;99.70;;;;;;5096836;28;20043;-77
2022/04/09 12:28:24;;;;;;;6.07;1.65;;;13.70;99.90;;;;;;5097606;28;20028;-75
2022/04/09 12:30:51;;;;;;;1.90;1.63;;;14.00;98.30;;;;;;5082834;28;20440;-76
2022/04/09 12:33:18;;;;;;;1.67;1.58;;;14.10;98.30;;;;;;5096992;28;20024;-76
2022/04/09 12:35:44;;;;;;;14.35;2.05;;;13.70;98.30;;;;;;5095882;28;20055;-75
2022/04/09 12:38:10;;;;;;;2.88;1.67;;;13.60;98.50;;;;;;5097119;28;20054;-75
2022/04/09 12:40:38;;;;;;;6.35;1.55;;;13.70;98.90;;;;;;5095899;28;20107;-75
2022/04/09 12:43:31;;;;;;;15.50;2.30;;;13.90;98.50;;;;;;5095687;28;20042;-76
2022/04/09 12:46:21;;;;;;;2.95;1.70;;;14.10;97.50;;;;;;5086728;28;20097;-76
2022/04/09 12:48:49;;;;;;;2.88;1.50;;;14.10;97.00;;;;;;5099301;28;20024;-76